FMCZ

Dzaoudzi Pamandzi International Airport

Dzaoudzi, Mayotte
METAR FMCZ 190100Z AUTO 01005KT 330V030 9999 FEW021 26/23 Q1013 NOSIG
Observed Flight Rules
Nov-19 @ 01:00 UTC (32 minutes ago) Visual Flight Rules
Wind Visibility Clouds
10° at 5 knots 10,000+ meters
  • Few at 2,100' AGL
Temperatures Readings
Current 26°C / 79°F
Dewpoint 23°C / 73°F
Humidity 84%
Altimeter 29.91" Hg
Pressure 1013 hPa
Elevation 7
METAR FMCZ 190100Z AUTO 01005KT 330V030 9999 FEW021 26/23 Q1013 NOSIG
Observed Flight Rules
Nov-19 @ 01:00 UTC
(32 minutes ago)
VFR
Wind Visibility
10° at 5 knots 10,000+ meters
Clouds
  • Few at 2,100' AGL
Temperature Dewpoint
26°C / 79°F 23°C / 73°F
Humidity Altimeter Pressure
84% 29.91" Hg 1013 hPa